Terminal Aerodrome Forecast
Issued by NWS

Current Version | Previous Version | Graphics & Text | Print | Product List | Glossary On
Versions: 1 2 3 4 5 6 7 8 9 10 11 12 13 14 15 16 17 18 19 20 21 22
000
FTUS41 KRLX 221731
TAFCKB
TAF
KCKB 221731Z 2218/2318 23010KT P6SM FEW026 BKN200
     FM230200 21007KT P6SM VCTS OVC050CB
     FM230400 21008KT 4SM SHRA OVC040
     FM230700 20007KT 4SM SHRA VCTS OVC035CB
     FM230800 21008KT 4SM SHRA OVC025
     FM231100 21008KT P6SM OVC025
     FM231400 22010G16KT P6SM SHRA OVC018
     FM231600 22012G21KT P6SM SHRA OVC030=

USA.gov is the U.S. government's official web portal to all federal, state and local government web resources and services.